Scroll down
FLIGHT INFORMATION
Sunwing Airlines

SWG527

At Arrival Gate

CYYZ
 CYUL
DATE: 2020-05-27
GATE:  -
GATE DEPARTURE: 18:44
TAKEOFF: 18:56
DATE: 2020-05-27
GATE:  -
LANDING: 19:49
GATE ARRIVAL: 19:52
FLIGHT DATA
Crew: 
Speed: 
820 kph
Altitude: 
35,003 ft
Stage Length: 
507.2 km
Block Time: 
1 hrs
Flight Time: 
0.9 hrs
Fuel Used: 
2,765 kg
Cleared Route: CYYZ MIGLO CYUL
TRACK DATA
50,000 ft 1,000 kts
AIRCRAFT INFO AND CUMULATIVE STATS
Aircraft Type: 
B738SSW
Registration: 
SELCAL: 
MSN/LN: 
39438 / 4816
Operator: 
Total Flights: 
5
Total Block Time: 
10.9 hrs
Total Flight Time: 
9.8 hrs
Total Fuel Time: 
28,397 kg
DATALINK LOG | Newest first | Current as of: 2021-05-06 01:15:39
LABEL SEQUENCE CONTENT Dn/Up
5Z020027 MAY 20 19:52:44z / FLT DECK GOOD / ACF POS GOOD / GRND SERVICES GOOD / MAINT TROLLING▼ Dn
QD005919:52 6.8▼ Dn
QC585719:49▼ Dn
2U2224CYUL 141100Z 24007KT 30SM FEW250 06/M02 A3026 RMK CI1 CI TR SLP248▲ Up
2S3135CYUL▼ Dn
GA3034ADVANCED GATE ASSIGNMENTS NOT YET AVAILABLE AT THIS AIRPORT▲ Up
GR3034CYUL 19:49 MAAS 00 YP/UM 01/01 WCHR/S/C 00/02/00 HI-VAL NO DIPL/VIP NO▼ Dn
2U1700CYUL 141100Z 24007KT 30SM FEW250 06/M02 A3026 RMK CI1 CI TR SLP248▲ Up
2S2529CYUL▼ Dn
UM0 UM962237UNABLE. CONTINUE PRESENT HEADING▲ Up
DM222227REQUEST DIRECT TO LONNA DUE TO A/C PERF▼ Dn
DM482126SANIN 19:12z FL350 MIGLO 19:20z REEDO M0.77 4.2 -33 307/74 RW24R 19:48z▼ Dn
QB051018:56▼ Dn
QA530218:44 13.1▼ Dn
2U2501CYYZ 141100Z 16004KT 130V200 15SM OVC095 07/M02 A3023 RMK AC8 SLP241▲ Up
2S2801CYYZ▼ Dn
A32608CLEARED TO CYUL VIA DEDKI4 MIGLO HABBS4. SQUAWK 7754.▲ Up
Q02458[LINK ACK]▲ Up
Q02458[LINK TEST]▼ Dn


AIRCRAFT HISTORY
FLIGHT DATE FLIGHT NO. ORIGIN DESTINATION CLEARED ROUTE BLOCK TIME FLIGHT TIME FUEL USED PILOT
2020-10-07SWG2201BIRK EGLL BIRK METIL NASBU MIKLA ING ROSTI LARUX MY MATIK BESGA MODGO STN ORSUM GOW FENIK LUSIV NAVSO BEBNI DCS LAKEY UTUXA HON DTY WOBUN BUZAD BPK LAM BEMID IPKUS EGLL3 hrs2.8 hrs16,822 lbRoberto Stopnicki
2020-10-04SWG2201CYYT BIRK CYYT JOOPY 5150N 5545N 5845N 6230N ELREX ELDIS BIRK3.6 hrs3.3 hrs21,256 lbRoberto Stopnicki
2020-10-03SWG2201CYUL CYYT CYUL KEBGO RABIK MOBAL ANTOV YQM TAGRA TIGOR CYYT2.1 hrs2 hrs12,076 lbRoberto Stopnicki
2020-05-27SWG527CYYZ CYUL CYYZ MIGLO CYUL1 hrs0.9 hrs6,096 lb-HIDDEN-
2019-11-21SWG1121CYUL CYYZ 1.2 hrs0.9 hrs6,356 lb-HIDDEN-